N2500A TNCA-TNCB
Flight info
| Callsign | N2500A |
|---|---|
| Flight time | 0h 46m |
| Altitude | 7000 |
| Route | DCT |
| Aircraft | C208/L-SDFGR/C |
Departure
| Time | 2026-05-07 23:54 |
|---|---|
| Airport | Queen Beatrix International Airport (TNCA) |
Arrival
| Time | 2026-05-08 00:40 |
|---|---|
| Airport | Flamingo International Airport (TNCB) |
| Time | Latitude | Longitude | Altitude | Speed | Heading |
|---|---|---|---|---|---|
| 2026-05-07 23:46 | 12.50220 | -70.00573 | 45 ft | 0 kts | 14° |
| 2026-05-07 23:48 | 12.50202 | -70.00647 | 45 ft | 25 kts | 264° |
| 2026-05-07 23:48 | 12.50215 | -70.00868 | 45 ft | 33 kts | 286° |
| 2026-05-07 23:49 | 12.50255 | -70.01076 | 45 ft | 26 kts | 249° |
| 2026-05-07 23:49 | 12.50250 | -70.01231 | 45 ft | 19 kts | 284° |
| 2026-05-07 23:49 | 12.50266 | -70.01356 | 45 ft | 18 kts | 244° |
| 2026-05-07 23:49 | 12.50202 | -70.01389 | 46 ft | 0 kts | 193° |
| 2026-05-07 23:53 | 12.50187 | -70.01393 | 46 ft | 7 kts | 194° |
| 2026-05-07 23:53 | 12.50111 | -70.01390 | 46 ft | 13 kts | 129° |
| 2026-05-07 23:53 | 12.50071 | -70.01242 | 48 ft | 40 kts | 105° |
| 2026-05-07 23:54 | 12.49972 | -70.00811 | 54 ft | 81 kts | 103° |
| 2026-05-07 23:54 | 12.49772 | -70.00229 | 309 ft | 85 kts | 106° |
| 2026-05-07 23:54 | 12.49553 | -69.99702 | 675 ft | 80 kts | 112° |
| 2026-05-07 23:54 | 12.49389 | -69.99162 | 926 ft | 80 kts | 98° |
| 2026-05-07 23:55 | 12.49316 | -69.98589 | 1164 ft | 82 kts | 100° |
| 2026-05-07 23:55 | 12.49221 | -69.97980 | 1389 ft | 93 kts | 99° |
| 2026-05-07 23:55 | 12.49095 | -69.97312 | 1688 ft | 96 kts | 102° |
| 2026-05-07 23:55 | 12.48958 | -69.96644 | 2023 ft | 96 kts | 102° |
| 2026-05-07 23:56 | 12.48861 | -69.96197 | 2204 ft | 97 kts | 103° |
| 2026-05-07 23:56 | 12.48706 | -69.95531 | 2459 ft | 95 kts | 104° |
| 2026-05-07 23:56 | 12.48552 | -69.94875 | 2748 ft | 95 kts | 105° |
| 2026-05-07 23:56 | 12.48394 | -69.94220 | 2983 ft | 95 kts | 103° |
| 2026-05-07 23:57 | 12.48239 | -69.93550 | 3202 ft | 100 kts | 104° |
| 2026-05-07 23:57 | 12.48072 | -69.92857 | 3528 ft | 101 kts | 105° |
| 2026-05-07 23:57 | 12.47906 | -69.92156 | 3862 ft | 101 kts | 105° |
| 2026-05-07 23:57 | 12.47736 | -69.91446 | 4158 ft | 104 kts | 106° |
| 2026-05-07 23:58 | 12.47563 | -69.90723 | 4454 ft | 104 kts | 107° |
| 2026-05-07 23:58 | 12.47393 | -69.90012 | 4696 ft | 103 kts | 107° |
| 2026-05-07 23:58 | 12.47222 | -69.89294 | 4922 ft | 103 kts | 108° |
| 2026-05-07 23:58 | 12.47054 | -69.88593 | 5232 ft | 102 kts | 107° |
| 2026-05-07 23:59 | 12.46882 | -69.87876 | 5474 ft | 105 kts | 107° |
| 2026-05-07 23:59 | 12.46705 | -69.87139 | 5695 ft | 106 kts | 106° |
| 2026-05-07 23:59 | 12.46534 | -69.86415 | 5907 ft | 109 kts | 107° |
| 2026-05-07 23:59 | 12.46354 | -69.85658 | 6118 ft | 111 kts | 105° |
| 2026-05-08 00:00 | 12.46170 | -69.84890 | 6370 ft | 109 kts | 105° |
| 2026-05-08 00:00 | 12.45991 | -69.84139 | 6578 ft | 111 kts | 106° |
| 2026-05-08 00:00 | 12.45807 | -69.83378 | 6838 ft | 108 kts | 105° |
| 2026-05-08 00:00 | 12.45631 | -69.82634 | 7058 ft | 109 kts | 104° |
| 2026-05-08 00:01 | 12.45420 | -69.81860 | 7178 ft | 116 kts | 108° |
| 2026-05-08 00:01 | 12.45205 | -69.81078 | 7414 ft | 112 kts | 105° |
| 2026-05-08 00:01 | 12.44994 | -69.80284 | 7547 ft | 118 kts | 105° |
| 2026-05-08 00:01 | 12.44774 | -69.79482 | 7770 ft | 117 kts | 106° |
| 2026-05-08 00:02 | 12.44557 | -69.78694 | 7997 ft | 114 kts | 105° |
| 2026-05-08 00:02 | 12.44336 | -69.77893 | 8178 ft | 115 kts | 105° |
| 2026-05-08 00:02 | 12.44123 | -69.77107 | 8404 ft | 114 kts | 106° |
| 2026-05-08 00:02 | 12.43907 | -69.76328 | 8575 ft | 118 kts | 105° |
| 2026-05-08 00:03 | 12.43680 | -69.75501 | 8747 ft | 119 kts | 105° |
| 2026-05-08 00:03 | 12.43455 | -69.74688 | 8913 ft | 122 kts | 105° |
| 2026-05-08 00:03 | 12.43220 | -69.73831 | 9043 ft | 126 kts | 105° |
| 2026-05-08 00:03 | 12.42986 | -69.72985 | 9306 ft | 121 kts | 105° |
| 2026-05-08 00:04 | 12.42754 | -69.72142 | 9469 ft | 126 kts | 105° |
| 2026-05-08 00:04 | 12.42523 | -69.71308 | 9725 ft | 122 kts | 104° |
| 2026-05-08 00:04 | 12.42289 | -69.70457 | 9869 ft | 125 kts | 105° |
| 2026-05-08 00:04 | 12.42051 | -69.69594 | 10032 ft | 127 kts | 104° |
| 2026-05-08 00:05 | 12.41814 | -69.68737 | 10228 ft | 126 kts | 104° |
| 2026-05-08 00:05 | 12.41575 | -69.67866 | 10392 ft | 128 kts | 105° |
| 2026-05-08 00:05 | 12.41330 | -69.66987 | 10583 ft | 125 kts | 104° |
| 2026-05-08 00:05 | 12.41098 | -69.66137 | 10755 ft | 126 kts | 104° |
| 2026-05-08 00:06 | 12.40858 | -69.65281 | 10966 ft | 122 kts | 103° |
| 2026-05-08 00:06 | 12.40636 | -69.64461 | 11173 ft | 120 kts | 104° |
| 2026-05-08 00:06 | 12.40402 | -69.63612 | 11253 ft | 127 kts | 104° |
| 2026-05-08 00:06 | 12.40165 | -69.62764 | 11486 ft | 121 kts | 104° |
| 2026-05-08 00:07 | 12.39930 | -69.61914 | 11576 ft | 128 kts | 104° |
| 2026-05-08 00:07 | 12.39692 | -69.61049 | 11764 ft | 126 kts | 103° |
| 2026-05-08 00:07 | 12.39450 | -69.60206 | 11972 ft | 123 kts | 108° |
| 2026-05-08 00:07 | 12.39154 | -69.59373 | 12136 ft | 123 kts | 106° |
| 2026-05-08 00:08 | 12.38885 | -69.58543 | 12321 ft | 122 kts | 105° |
| 2026-05-08 00:08 | 12.38615 | -69.57727 | 12482 ft | 123 kts | 106° |
| 2026-05-08 00:08 | 12.38323 | -69.56857 | 12495 ft | 134 kts | 107° |
| 2026-05-08 00:08 | 12.38007 | -69.55922 | 12503 ft | 144 kts | 107° |
| 2026-05-08 00:09 | 12.37675 | -69.54929 | 12505 ft | 151 kts | 107° |
| 2026-05-08 00:09 | 12.37327 | -69.53898 | 12504 ft | 155 kts | 107° |
| 2026-05-08 00:09 | 12.36972 | -69.52846 | 12502 ft | 158 kts | 106° |
| 2026-05-08 00:09 | 12.36612 | -69.51782 | 12506 ft | 159 kts | 106° |
| 2026-05-08 00:10 | 12.36249 | -69.50707 | 12503 ft | 160 kts | 107° |
| 2026-05-08 00:10 | 12.35885 | -69.49624 | 12503 ft | 161 kts | 105° |
| 2026-05-08 00:10 | 12.35521 | -69.48540 | 12503 ft | 161 kts | 107° |
| 2026-05-08 00:10 | 12.35154 | -69.47452 | 12502 ft | 162 kts | 107° |
| 2026-05-08 00:11 | 12.34784 | -69.46363 | 12504 ft | 161 kts | 107° |
| 2026-05-08 00:11 | 12.34421 | -69.45275 | 12503 ft | 162 kts | 107° |
| 2026-05-08 00:11 | 12.34054 | -69.44191 | 12505 ft | 160 kts | 106° |
| 2026-05-08 00:11 | 12.33690 | -69.43115 | 12503 ft | 160 kts | 107° |
| 2026-05-08 00:12 | 12.33325 | -69.42037 | 12501 ft | 159 kts | 107° |
| 2026-05-08 00:12 | 12.32964 | -69.40967 | 12496 ft | 160 kts | 107° |
| 2026-05-08 00:12 | 12.32604 | -69.39899 | 12496 ft | 159 kts | 107° |
| 2026-05-08 00:12 | 12.32248 | -69.38839 | 12503 ft | 158 kts | 106° |
| 2026-05-08 00:13 | 12.31890 | -69.37774 | 12504 ft | 158 kts | 107° |
| 2026-05-08 00:13 | 12.31528 | -69.36713 | 12506 ft | 157 kts | 106° |
| 2026-05-08 00:13 | 12.31175 | -69.35660 | 12502 ft | 156 kts | 106° |
| 2026-05-08 00:13 | 12.30828 | -69.34606 | 12502 ft | 156 kts | 106° |
| 2026-05-08 00:14 | 12.30479 | -69.33556 | 12500 ft | 157 kts | 107° |
| 2026-05-08 00:14 | 12.30125 | -69.32493 | 12498 ft | 158 kts | 106° |
| 2026-05-08 00:14 | 12.29772 | -69.31426 | 12504 ft | 157 kts | 106° |
| 2026-05-08 00:14 | 12.29420 | -69.30367 | 12501 ft | 157 kts | 106° |
| 2026-05-08 00:15 | 12.29069 | -69.29313 | 12503 ft | 156 kts | 106° |
| 2026-05-08 00:15 | 12.28721 | -69.28263 | 12504 ft | 156 kts | 107° |
| 2026-05-08 00:15 | 12.28371 | -69.27211 | 12503 ft | 156 kts | 106° |
| 2026-05-08 00:15 | 12.28021 | -69.26159 | 12507 ft | 157 kts | 107° |
| 2026-05-08 00:16 | 12.27669 | -69.25098 | 12512 ft | 158 kts | 107° |
| 2026-05-08 00:16 | 12.27317 | -69.24039 | 12514 ft | 157 kts | 106° |
| 2026-05-08 00:16 | 12.26962 | -69.22979 | 12519 ft | 157 kts | 106° |
| 2026-05-08 00:16 | 12.26614 | -69.21929 | 12514 ft | 156 kts | 105° |
| 2026-05-08 00:17 | 12.26268 | -69.20880 | 12509 ft | 155 kts | 106° |
| 2026-05-08 00:17 | 12.25919 | -69.19839 | 12511 ft | 154 kts | 106° |
| 2026-05-08 00:17 | 12.25574 | -69.18802 | 12506 ft | 154 kts | 106° |
| 2026-05-08 00:17 | 12.25230 | -69.17763 | 12505 ft | 154 kts | 106° |
| 2026-05-08 00:18 | 12.24885 | -69.16732 | 12507 ft | 153 kts | 106° |
| 2026-05-08 00:18 | 12.24545 | -69.15700 | 12508 ft | 153 kts | 106° |
| 2026-05-08 00:18 | 12.24202 | -69.14679 | 12509 ft | 151 kts | 105° |
| 2026-05-08 00:18 | 12.23864 | -69.13661 | 12507 ft | 151 kts | 106° |
| 2026-05-08 00:19 | 12.23523 | -69.12645 | 12512 ft | 151 kts | 106° |
| 2026-05-08 00:19 | 12.23187 | -69.11626 | 12508 ft | 152 kts | 106° |
| 2026-05-08 00:19 | 12.22845 | -69.10599 | 12510 ft | 153 kts | 105° |
| 2026-05-08 00:19 | 12.22505 | -69.09575 | 12515 ft | 151 kts | 105° |
| 2026-05-08 00:20 | 12.22162 | -69.08560 | 12519 ft | 151 kts | 105° |
| 2026-05-08 00:20 | 12.21826 | -69.07551 | 12519 ft | 151 kts | 106° |
| 2026-05-08 00:20 | 12.21491 | -69.06536 | 12521 ft | 151 kts | 106° |
| 2026-05-08 00:20 | 12.21150 | -69.05515 | 12523 ft | 151 kts | 105° |
| 2026-05-08 00:21 | 12.20811 | -69.04499 | 12521 ft | 151 kts | 106° |
| 2026-05-08 00:21 | 12.20469 | -69.03475 | 12519 ft | 153 kts | 107° |
| 2026-05-08 00:21 | 12.20133 | -69.02465 | 12522 ft | 151 kts | 106° |
| 2026-05-08 00:21 | 12.19793 | -69.01447 | 12519 ft | 151 kts | 106° |
| 2026-05-08 00:22 | 12.19608 | -69.00409 | 12529 ft | 148 kts | 93° |
| 2026-05-08 00:22 | 12.19508 | -68.99354 | 12524 ft | 150 kts | 95° |
| 2026-05-08 00:22 | 12.19390 | -68.98297 | 12527 ft | 150 kts | 95° |
| 2026-05-08 00:22 | 12.19272 | -68.97226 | 12525 ft | 152 kts | 95° |
| 2026-05-08 00:23 | 12.19152 | -68.96150 | 12530 ft | 152 kts | 95° |
| 2026-05-08 00:23 | 12.19034 | -68.95079 | 12528 ft | 151 kts | 95° |
| 2026-05-08 00:23 | 12.18921 | -68.94019 | 12532 ft | 150 kts | 95° |
| 2026-05-08 00:23 | 12.18801 | -68.92958 | 12531 ft | 151 kts | 95° |
| 2026-05-08 00:24 | 12.18683 | -68.91894 | 12525 ft | 151 kts | 95° |
| 2026-05-08 00:24 | 12.18564 | -68.90821 | 12520 ft | 152 kts | 95° |
| 2026-05-08 00:24 | 12.18447 | -68.89749 | 12523 ft | 151 kts | 95° |
| 2026-05-08 00:24 | 12.18331 | -68.88685 | 12529 ft | 151 kts | 95° |
| 2026-05-08 00:25 | 12.18212 | -68.87622 | 12530 ft | 150 kts | 95° |
| 2026-05-08 00:25 | 12.18094 | -68.86560 | 12528 ft | 150 kts | 95° |
| 2026-05-08 00:25 | 12.17977 | -68.85497 | 12530 ft | 151 kts | 94° |
| 2026-05-08 00:25 | 12.17866 | -68.84426 | 12530 ft | 151 kts | 94° |
| 2026-05-08 00:26 | 12.17759 | -68.83360 | 12523 ft | 151 kts | 94° |
| 2026-05-08 00:26 | 12.17654 | -68.82297 | 12530 ft | 149 kts | 94° |
| 2026-05-08 00:26 | 12.17554 | -68.81240 | 12527 ft | 150 kts | 94° |
| 2026-05-08 00:26 | 12.17463 | -68.80178 | 12527 ft | 150 kts | 93° |
| 2026-05-08 00:27 | 12.17379 | -68.79114 | 12527 ft | 150 kts | 93° |
| 2026-05-08 00:27 | 12.17296 | -68.78048 | 12527 ft | 150 kts | 93° |
| 2026-05-08 00:27 | 12.16989 | -68.77036 | 12516 ft | 156 kts | 124° |
| 2026-05-08 00:27 | 12.16354 | -68.76158 | 12521 ft | 152 kts | 109° |
| 2026-05-08 00:28 | 12.16002 | -68.75150 | 12518 ft | 150 kts | 105° |
| 2026-05-08 00:28 | 12.15658 | -68.74139 | 12523 ft | 151 kts | 105° |
| 2026-05-08 00:28 | 12.15259 | -68.73146 | 12521 ft | 154 kts | 120° |
| 2026-05-08 00:28 | 12.14615 | -68.72262 | 12521 ft | 155 kts | 117° |
| 2026-05-08 00:29 | 12.14171 | -68.71266 | 12517 ft | 154 kts | 106° |
| 2026-05-08 00:29 | 12.14005 | -68.70199 | 12437 ft | 156 kts | 92° |
| 2026-05-08 00:29 | 12.13944 | -68.69068 | 12202 ft | 160 kts | 91° |
| 2026-05-08 00:29 | 12.13911 | -68.67929 | 11964 ft | 159 kts | 91° |
| 2026-05-08 00:30 | 12.13889 | -68.66795 | 11728 ft | 159 kts | 90° |
| 2026-05-08 00:30 | 12.13871 | -68.65662 | 11488 ft | 160 kts | 91° |
| 2026-05-08 00:30 | 12.13851 | -68.64518 | 11253 ft | 160 kts | 91° |
| 2026-05-08 00:30 | 12.13833 | -68.63379 | 11017 ft | 160 kts | 92° |
| 2026-05-08 00:31 | 12.13814 | -68.62256 | 10782 ft | 158 kts | 92° |
| 2026-05-08 00:31 | 12.13793 | -68.61129 | 10558 ft | 159 kts | 92° |
| 2026-05-08 00:31 | 12.13775 | -68.60015 | 10302 ft | 161 kts | 92° |
| 2026-05-08 00:31 | 12.13754 | -68.58868 | 10032 ft | 162 kts | 93° |
| 2026-05-08 00:32 | 12.13736 | -68.57717 | 9749 ft | 162 kts | 93° |
| 2026-05-08 00:32 | 12.13718 | -68.56579 | 9443 ft | 153 kts | 93° |
| 2026-05-08 00:32 | 12.13700 | -68.55541 | 9121 ft | 141 kts | 93° |
| 2026-05-08 00:32 | 12.13682 | -68.54563 | 8800 ft | 135 kts | 93° |
| 2026-05-08 00:33 | 12.13664 | -68.53609 | 8486 ft | 133 kts | 94° |
| 2026-05-08 00:33 | 12.13650 | -68.52681 | 8189 ft | 129 kts | 91° |
| 2026-05-08 00:33 | 12.13636 | -68.51768 | 7870 ft | 128 kts | 93° |
| 2026-05-08 00:33 | 12.13617 | -68.50844 | 7516 ft | 130 kts | 93° |
| 2026-05-08 00:34 | 12.13603 | -68.49904 | 7166 ft | 135 kts | 92° |
| 2026-05-08 00:34 | 12.13585 | -68.48957 | 6817 ft | 133 kts | 91° |
| 2026-05-08 00:34 | 12.13567 | -68.48016 | 6464 ft | 131 kts | 91° |
| 2026-05-08 00:34 | 12.13554 | -68.47092 | 6094 ft | 129 kts | 91° |
| 2026-05-08 00:35 | 12.13538 | -68.46185 | 5724 ft | 126 kts | 92° |
| 2026-05-08 00:35 | 12.13525 | -68.45305 | 5358 ft | 122 kts | 93° |
| 2026-05-08 00:35 | 12.13508 | -68.44428 | 4996 ft | 123 kts | 94° |
| 2026-05-08 00:35 | 12.13495 | -68.43556 | 4650 ft | 122 kts | 93° |
| 2026-05-08 00:36 | 12.13478 | -68.42692 | 4288 ft | 121 kts | 95° |
| 2026-05-08 00:36 | 12.13462 | -68.41836 | 3929 ft | 121 kts | 94° |
| 2026-05-08 00:36 | 12.13448 | -68.40934 | 3599 ft | 133 kts | 94° |
| 2026-05-08 00:36 | 12.13436 | -68.39991 | 3262 ft | 132 kts | 95° |
| 2026-05-08 00:37 | 12.13417 | -68.39052 | 2911 ft | 131 kts | 94° |
| 2026-05-08 00:37 | 12.13401 | -68.38117 | 2559 ft | 132 kts | 94° |
| 2026-05-08 00:37 | 12.13386 | -68.37177 | 2201 ft | 132 kts | 94° |
| 2026-05-08 00:38 | 12.13354 | -68.35303 | 1587 ft | 127 kts | 93° |
| 2026-05-08 00:38 | 12.13336 | -68.34413 | 1332 ft | 125 kts | 91° |
| 2026-05-08 00:38 | 12.13322 | -68.33528 | 1100 ft | 123 kts | 91° |
| 2026-05-08 00:38 | 12.13308 | -68.32720 | 1074 ft | 108 kts | 91° |
| 2026-05-08 00:39 | 12.13296 | -68.31959 | 955 ft | 106 kts | 92° |
| 2026-05-08 00:39 | 12.13279 | -68.31178 | 709 ft | 115 kts | 92° |
| 2026-05-08 00:39 | 12.13267 | -68.30367 | 477 ft | 113 kts | 96° |
| 2026-05-08 00:39 | 12.13200 | -68.29577 | 189 ft | 112 kts | 101° |
| 2026-05-08 00:40 | 12.13140 | -68.28876 | 164 ft | 90 kts | 93° |
| 2026-05-08 00:40 | 12.13129 | -68.28305 | 112 ft | 72 kts | 94° |
| 2026-05-08 00:40 | 12.13114 | -68.27884 | 32 ft | 50 kts | 90° |
| 2026-05-08 00:40 | 12.13103 | -68.27597 | 27 ft | 28 kts | 92° |
| 2026-05-08 00:41 | 12.13141 | -68.27503 | 26 ft | 14 kts | 19° |
| 2026-05-08 00:41 | 12.13267 | -68.27498 | 26 ft | 13 kts | 0° |
| 2026-05-08 00:41 | 12.13280 | -68.27516 | 26 ft | 5 kts | 296° |
| 2026-05-08 00:41 | 12.13284 | -68.27562 | 26 ft | 14 kts | 273° |
| 2026-05-08 00:42 | 12.13269 | -68.27628 | 26 ft | 10 kts | 181° |
| 2026-05-08 00:42 | 12.13229 | -68.27678 | 27 ft | 6 kts | 269° |
| 2026-05-08 00:42 | 12.13260 | -68.27683 | 26 ft | 7 kts | 33° |
| 2026-05-08 00:42 | 12.13264 | -68.27680 | 26 ft | 0 kts | 34° |